Home > Products > Valid Products > TAF

000
FTUS43 KARX 301729
TAFLSE
TAF
KLSE 301729Z 3018/3118 VRB03KT P6SM BKN120
     FM310300 17004KT P6SM SCT150
     FM311500 33005KT P6SM SCT025=



000
FTUS43 KARX 301729
TAFRST
TAF
KRST 301729Z 3018/3118 19007KT P6SM BKN150
     FM310300 22010KT P6SM SCT150
     FM310900 24008KT 4SM BR SCT150
     FM311500 35007KT P6SM BKN020=



000
FTUS43 KARX 301729
TAFRST
TAF
KRST 301729Z 3018/3118 19007KT P6SM BKN150
     FM310300 22010KT P6SM SCT150
     FM310900 24008KT 4SM BR SCT150
     FM311500 35007KT P6SM BKN020=



000
FTUS43 KARX 301729
TAFLSE
TAF
KLSE 301729Z 3018/3118 VRB03KT P6SM BKN120
     FM310300 17004KT P6SM SCT150
     FM311500 33005KT P6SM SCT025=



000
FTUS43 KARX 301130
TAFRST
TAF
KRST 301130Z 3012/3112 34005KT P6SM SCT080
     FM301500 20007KT P6SM BKN150
     FM310100 22010KT P6SM BKN150
     FM310900 24006KT P6SM BKN020=



000
FTUS43 KARX 301130
TAFLSE
TAF
KLSE 301130Z 3012/3112 33004KT P6SM BKN150
     FM301800 22004KT P6SM BKN120
     FM310300 17005KT P6SM BKN150
     FM311000 24007KT P6SM BKN025=



000
FTUS43 KARX 301130
TAFLSE
TAF
KLSE 301130Z 3012/3112 33004KT P6SM BKN150
     FM301800 22004KT P6SM BKN120
     FM310300 17005KT P6SM BKN150
     FM311000 24007KT P6SM BKN025=



000
FTUS43 KARX 301130
TAFRST
TAF
KRST 301130Z 3012/3112 34005KT P6SM SCT080
     FM301500 20007KT P6SM BKN150
     FM310100 22010KT P6SM BKN150
     FM310900 24006KT P6SM BKN020=



000
FTUS43 KARX 300526
TAFRST
TAF
KRST 300526Z 3006/3106 33014KT P6SM SKC
     FM300900 32007KT P6SM BKN150
     FM301500 20006KT P6SM BKN150
     FM310300 20012KT P6SM BKN150=



000
FTUS43 KARX 300526
TAFLSE
TAF
KLSE 300526Z 3006/3106 32011KT P6SM BKN035
     FM300900 33006KT P6SM SCT035
     FM301200 33004KT P6SM BKN150
     FM301800 19004KT P6SM BKN150=



000
FTUS43 KARX 300526
TAFLSE
TAF
KLSE 300526Z 3006/3106 32011KT P6SM BKN035
     FM300900 33006KT P6SM SCT035
     FM301200 33004KT P6SM BKN150
     FM301800 19004KT P6SM BKN150=



000
FTUS43 KARX 300526
TAFRST
TAF
KRST 300526Z 3006/3106 33014KT P6SM SKC
     FM300900 32007KT P6SM BKN150
     FM301500 20006KT P6SM BKN150
     FM310300 20012KT P6SM BKN150=



000
FTUS43 KARX 292335
TAFLSE
TAF
KLSE 292335Z 3000/3024 32014KT P6SM OVC035
     FM300700 33007KT P6SM SCT035
     FM301200 33004KT P6SM BKN150
     FM301800 20004KT P6SM BKN150=



000
FTUS43 KARX 292335
TAFLSE
TAF
KLSE 292335Z 3000/3024 32014KT P6SM OVC035
     FM300700 33007KT P6SM SCT035
     FM301200 33004KT P6SM BKN150
     FM301800 20004KT P6SM BKN150=



000
FTUS43 KARX 292335
TAFRST
TAF
KRST 292335Z 3000/3024 33018G26KT P6SM OVC025
     FM300200 33016KT P6SM SCT030
     FM300900 32007KT P6SM BKN150
     FM301600 20006KT P6SM BKN150=



000
FTUS43 KARX 292133 AAB
TAFLSE
TAF AMD
KLSE 292133Z 2922/3018 33018G27KT P6SM OVC035
     FM300000 32014G25KT P6SM OVC035
     FM300700 33012KT P6SM SCT030
     FM301200 33005KT P6SM SCT020=



000
FTUS43 KARX 292133 AAB
TAFLSE
TAF AMD
KLSE 292133Z 2922/3018 33018G27KT P6SM OVC035
     FM300000 32014G25KT P6SM OVC035
     FM300700 33012KT P6SM SCT030
     FM301200 33005KT P6SM SCT020=



000
FTUS43 KARX 292126 AAA
TAFRST
TAF AMD
KRST 292126Z 2921/3018 33023G29KT P6SM OVC020
     FM300000 33018G26KT P6SM OVC025
     FM300500 33012KT P6SM SCT020
     FM301200 32007KT P6SM SCT015=



000
FTUS43 KARX 292126 AAA
TAFRST
TAF AMD
KRST 292126Z 2921/3018 33023G29KT P6SM OVC020
     FM300000 33018G26KT P6SM OVC025
     FM300500 33012KT P6SM SCT020
     FM301200 32007KT P6SM SCT015=



000
FTUS43 KARX 292059 AAA
TAFLSE
TAF AMD
KLSE 292059Z 2921/3018 33018G27KT P6SM OVC035
     FM300000 32015G24KT P6SM OVC022
     FM300700 33012KT P6SM BKN028
     FM301200 33005KT P6SM SCT020=



000
FTUS43 KARX 292059 AAA
TAFLSE
TAF AMD
KLSE 292059Z 2921/3018 33018G27KT P6SM OVC035
     FM300000 32015G24KT P6SM OVC022
     FM300700 33012KT P6SM BKN028
     FM301200 33005KT P6SM SCT020=



000
FTUS43 KARX 291728
TAFRST
TAF
KRST 291728Z 2918/3018 33023G32KT P6SM OVC015
     FM300000 33018G26KT P6SM OVC018
     FM300500 33012KT P6SM BKN020
     FM301200 32007KT P6SM SCT015=



000
FTUS43 KARX 291728
TAFLSE
TAF
KLSE 291728Z 2918/3018 33018G27KT P6SM OVC025
     FM300000 32015G24KT P6SM OVC022
     FM300700 33012KT P6SM BKN028
     FM301200 33005KT P6SM SCT020=



000
FTUS43 KARX 291728
TAFRST
TAF
KRST 291728Z 2918/3018 33023G32KT P6SM OVC015
     FM300000 33018G26KT P6SM OVC018
     FM300500 33012KT P6SM BKN020
     FM301200 32007KT P6SM SCT015=



000
FTUS43 KARX 291728
TAFLSE
TAF
KLSE 291728Z 2918/3018 33018G27KT P6SM OVC025
     FM300000 32015G24KT P6SM OVC022
     FM300700 33012KT P6SM BKN028
     FM301200 33005KT P6SM SCT020=



000
FTUS43 KARX 291501 AAB
TAFRST
TAF AMD
KRST 291501Z 2915/3012 33020G29KT 5SM BR OVC007
     FM291800 33023G33KT P6SM OVC012
     FM300000 33018G26KT P6SM OVC018
     FM300500 33012G20KT P6SM OVC022=



000
FTUS43 KARX 291501 AAB
TAFRST
TAF AMD
KRST 291501Z 2915/3012 33020G29KT 5SM BR OVC007
     FM291800 33023G33KT P6SM OVC012
     FM300000 33018G26KT P6SM OVC018
     FM300500 33012G20KT P6SM OVC022=



000
FTUS43 KARX 291338 AAA
TAFRST
TAF AMD
KRST 291338Z 2914/3012 33020G31KT P6SM OVC010
     FM291800 33023G33KT P6SM OVC012
     FM300000 33018G26KT P6SM OVC018
     FM300500 33012G20KT P6SM OVC022=



000
FTUS43 KARX 291128
TAFLSE
TAF
KLSE 291128Z 2912/3012 33014KT P6SM OVC014
     FM291500 32020G29KT P6SM OVC012
     FM300000 32015G23KT P6SM OVC022
     FM300700 33012G18KT P6SM OVC028=



000
FTUS43 KARX 291128
TAFRST
TAF
KRST 291128Z 2912/3012 33020G28KT P6SM OVC005
     FM291800 33023G33KT P6SM OVC009
     FM300000 33018G26KT P6SM OVC012
     FM300500 33012G20KT P6SM OVC018=



000
FTUS43 KARX 291128
TAFRST
TAF
KRST 291128Z 2912/3012 33020G28KT P6SM OVC005
     FM291800 33023G33KT P6SM OVC009
     FM300000 33018G26KT P6SM OVC012
     FM300500 33012G20KT P6SM OVC018=



000
FTUS43 KARX 291128
TAFLSE
TAF
KLSE 291128Z 2912/3012 33014KT P6SM OVC014
     FM291500 32020G29KT P6SM OVC012
     FM300000 32015G23KT P6SM OVC022
     FM300700 33012G18KT P6SM OVC028=



000
FTUS43 KARX 290536
TAFLSE
TAF
KLSE 290536Z 2906/3006 01005KT P6SM OVC015
     FM290800 35005KT 2SM -DZ BR OVC009
     FM291000 33010KT 4SM -DZ BR OVC008
     FM291200 32018G26KT P6SM OVC010
     FM291800 32020G28KT P6SM OVC012
     FM300000 32013KT P6SM OVC022=



000
FTUS43 KARX 290536
TAFRST
TAF
KRST 290536Z 2906/3006 34005KT 1SM -DZ BR OVC003
     FM290900 32018G25KT 3SM -DZ BR OVC003
     FM291200 33023G32KT P6SM OVC005
     FM291800 33022G30KT P6SM OVC015
     FM300000 33016KT P6SM OVC015=



000
FTUS43 KARX 290536
TAFRST
TAF
KRST 290536Z 2906/3006 34005KT 1SM -DZ BR OVC003
     FM290900 32018G25KT 3SM -DZ BR OVC003
     FM291200 33023G32KT P6SM OVC005
     FM291800 33022G30KT P6SM OVC015
     FM300000 33016KT P6SM OVC015=



000
FTUS43 KARX 290536
TAFLSE
TAF
KLSE 290536Z 2906/3006 01005KT P6SM OVC015
     FM290800 35005KT 2SM -DZ BR OVC009
     FM291000 33010KT 4SM -DZ BR OVC008
     FM291200 32018G26KT P6SM OVC010
     FM291800 32020G28KT P6SM OVC012
     FM300000 32013KT P6SM OVC022=



000
FTUS43 KARX 290429 AAA
TAFRST
TAF AMD
KRST 290429Z 2904/2924 34005KT 1SM -DZ BR OVC003
     FM290800 32018G25KT 4SM -DZ BR OVC003
     FM291200 33025G32KT P6SM OVC005
     FM291800 33022G30KT P6SM BKN020=



000
FTUS43 KARX 290429 AAA
TAFRST
TAF AMD
KRST 290429Z 2904/2924 34005KT 1SM -DZ BR OVC003
     FM290800 32018G25KT 4SM -DZ BR OVC003
     FM291200 33025G32KT P6SM OVC005
     FM291800 33022G30KT P6SM BKN020=



000
FTUS43 KARX 290104 AAA
TAFLSE
TAF AMD
KLSE 290104Z 2901/2924 15010KT P6SM OVC022
     FM290300 13006KT P6SM OVC015
     FM290600 12004KT 3SM -DZ BR OVC012
     FM290900 32010KT 4SM -DZ BR OVC012
     FM291200 32018G28KT P6SM OVC010=



000
FTUS43 KARX 290104 AAA
TAFLSE
TAF AMD
KLSE 290104Z 2901/2924 15010KT P6SM OVC022
     FM290300 13006KT P6SM OVC015
     FM290600 12004KT 3SM -DZ BR OVC012
     FM290900 32010KT 4SM -DZ BR OVC012
     FM291200 32018G28KT P6SM OVC010=



000
FTUS43 KARX 290104 AAA
TAFLSE
TAF AMD
KLSE 290104Z 2901/2924 15010KT P6SM OVC022
     FM290300 13006KT P6SM OVC015
     FM290600 12004KT 3SM -DZ BR OVC012
     FM290900 32010KT 4SM -DZ BR OVC012
     FM291200 32018G28KT P6SM OVC010=



000
FTUS43 KARX 282344
TAFRST
TAF
KRST 282344Z 2900/2924 16014KT 5SM BR OVC015
     FM290400 15005KT 2SM -DZ BR OVC005
     FM290800 32018G25KT 4SM -DZ BR OVC003
     FM291200 33025G32KT P6SM OVC005
     FM291800 33022G30KT P6SM BKN020=



000
FTUS43 KARX 282344
TAFLSE
TAF
KLSE 282344Z 2900/2924 13012KT P6SM SCT015
     FM290300 13006KT P6SM OVC015
     FM290600 12004KT 3SM -DZ BR OVC012
     FM290900 32010KT 4SM -DZ BR OVC012
     FM291200 32018G28KT P6SM OVC010=



000
FTUS43 KARX 282344
TAFLSE
TAF
KLSE 282344Z 2900/2924 13012KT P6SM SCT015
     FM290300 13006KT P6SM OVC015
     FM290600 12004KT 3SM -DZ BR OVC012
     FM290900 32010KT 4SM -DZ BR OVC012
     FM291200 32018G28KT P6SM OVC010=



000
FTUS43 KARX 282344
TAFRST
TAF
KRST 282344Z 2900/2924 16014KT 5SM BR OVC015
     FM290400 15005KT 2SM -DZ BR OVC005
     FM290800 32018G25KT 4SM -DZ BR OVC003
     FM291200 33025G32KT P6SM OVC005
     FM291800 33022G30KT P6SM BKN020=



000
FTUS43 KARX 282147 AAB
TAFRST
TAF AMD
KRST 282147Z 2822/2918 16014KT 5SM BR OVC015
     FM290200 15005KT 2SM -DZ BR OVC005
     FM290800 32012G18KT 4SM -DZ BR OVC003
     FM291200 33019G27KT P6SM OVC005=



000
FTUS43 KARX 282147 AAB
TAFRST
TAF AMD
KRST 282147Z 2822/2918 16014KT 5SM BR OVC015
     FM290200 15005KT 2SM -DZ BR OVC005
     FM290800 32012G18KT 4SM -DZ BR OVC003
     FM291200 33019G27KT P6SM OVC005=



000
FTUS43 KARX 282057 AAA
TAFLSE
TAF AMD
KLSE 282057Z 2821/2918 13012KT P6SM SCT015
     FM290200 15005KT 3SM -DZ BR OVC012
     FM290900 32005KT 4SM -DZ BR OVC012
     FM291200 33015G23KT P6SM OVC010=



000
FTUS43 KARX 282000 AAA
TAFRST
TAF AMD
KRST 282000Z 2820/2918 16018G25KT 4SM BR OVC009
     FM282200 16012KT P6SM OVC009
     FM290100 15005KT 2SM -DZ BR OVC003
     FM290800 32012G18KT 4SM -DZ BR OVC003
     FM291200 33019G27KT P6SM OVC005=



000
FTUS43 KARX 282000 AAA
TAFRST
TAF AMD
KRST 282000Z 2820/2918 16018G25KT 4SM BR OVC009
     FM282200 16012KT P6SM OVC009
     FM290100 15005KT 2SM -DZ BR OVC003
     FM290800 32012G18KT 4SM -DZ BR OVC003
     FM291200 33019G27KT P6SM OVC005=



000
FTUS43 KARX 281730
TAFRST
TAF
KRST 281730Z 2818/2918 16018G25KT 1 1/2SM BR OVC003
      TEMPO 2818/2822 1/2SM FZFG OVC002
     FM282200 16012KT 4SM BR OVC008
     FM290100 15005KT 2SM -DZ BR OVC003
     FM290800 32012G18KT 4SM -DZ BR OVC003
     FM291200 33019G27KT P6SM OVC005=



000
FTUS43 KARX 281730
TAFLSE
TAF
KLSE 281730Z 2818/2918 16013KT 5SM BR OVC012
     FM290200 15005KT 3SM -DZ BR OVC008
     FM290900 32005KT 4SM -DZ BR OVC012
     FM291200 33015G23KT P6SM OVC010=



000
FTUS43 KARX 281730
TAFRST
TAF
KRST 281730Z 2818/2918 16018G25KT 1 1/2SM BR OVC003
      TEMPO 2818/2822 1/2SM FZFG OVC002
     FM282200 16012KT 4SM BR OVC008
     FM290100 15005KT 2SM -DZ BR OVC003
     FM290800 32012G18KT 4SM -DZ BR OVC003
     FM291200 33019G27KT P6SM OVC005=



000
FTUS43 KARX 281730
TAFLSE
TAF
KLSE 281730Z 2818/2918 16013KT 5SM BR OVC012
     FM290200 15005KT 3SM -DZ BR OVC008
     FM290900 32005KT 4SM -DZ BR OVC012
     FM291200 33015G23KT P6SM OVC010=



000
FTUS43 KARX 281523 AAA
TAFRST
TAF AMD
KRST 281523Z 2815/2912 15017G24KT 1 1/2SM BR OVC003
     FM281700 16018G24KT P6SM OVC006
     FM282300 16012KT P6SM OVC009
     FM290200 15005KT 2SM -DZ BR OVC004
     FM290700 32010G18KT 4SM -DZ BR OVC008=



000
FTUS43 KARX 281523 AAA
TAFRST
TAF AMD
KRST 281523Z 2815/2912 15017G24KT 1 1/2SM BR OVC003
     FM281700 16018G24KT P6SM OVC006
     FM282300 16012KT P6SM OVC009
     FM290200 15005KT 2SM -DZ BR OVC004
     FM290700 32010G18KT 4SM -DZ BR OVC008=



000
FTUS43 KARX 281139
TAFRST
TAF
KRST 281139Z 2812/2912 15017KT 2SM BR OVC004
     FM281700 16018G24KT P6SM OVC006
     FM282300 16012KT P6SM OVC009
     FM290200 15005KT 2SM -DZ BR OVC004
     FM290700 32010G18KT 4SM -DZ BR OVC008=



000
FTUS43 KARX 281139
TAFLSE
TAF
KLSE 281139Z 2812/2912 16010KT 6SM BR OVC012
     FM281700 15010KT P6SM OVC022
     FM290300 15005KT 3SM -DZ BR OVC009
     FM290700 32005KT 4SM -DZ BR OVC012=



000
FTUS43 KARX 281139
TAFLSE
TAF
KLSE 281139Z 2812/2912 16010KT 6SM BR OVC012
     FM281700 15010KT P6SM OVC022
     FM290300 15005KT 3SM -DZ BR OVC009
     FM290700 32005KT 4SM -DZ BR OVC012=



000
FTUS43 KARX 281139
TAFRST
TAF
KRST 281139Z 2812/2912 15017KT 2SM BR OVC004
     FM281700 16018G24KT P6SM OVC006
     FM282300 16012KT P6SM OVC009
     FM290200 15005KT 2SM -DZ BR OVC004
     FM290700 32010G18KT 4SM -DZ BR OVC008=



000
FTUS43 KARX 280520
TAFLSE
TAF
KLSE 280520Z 2806/2906 14006KT P6SM OVC018
     FM281500 15010KT P6SM OVC022
     FM290400 VRB03KT 5SM -DZ BR OVC015=



000
FTUS43 KARX 280520
TAFRST
TAF
KRST 280520Z 2806/2906 16011KT P6SM OVC008
     FM281500 16018G24KT P6SM OVC012
     FM282300 16012KT P6SM OVC012
     FM290300 06005KT 5SM -DZ BR OVC008=



000
FTUS43 KARX 280520
TAFLSE
TAF
KLSE 280520Z 2806/2906 14006KT P6SM OVC018
     FM281500 15010KT P6SM OVC022
     FM290400 VRB03KT 5SM -DZ BR OVC015=



000
FTUS43 KARX 280520
TAFRST
TAF
KRST 280520Z 2806/2906 16011KT P6SM OVC008
     FM281500 16018G24KT P6SM OVC012
     FM282300 16012KT P6SM OVC012
     FM290300 06005KT 5SM -DZ BR OVC008=



000
FTUS43 KARX 272321
TAFLSE
TAF
KLSE 272321Z 2800/2824 14003KT P6SM OVC022
     FM281500 15007KT P6SM OVC022=



000
FTUS43 KARX 272321
TAFRST
TAF
KRST 272321Z 2800/2824 15007KT P6SM OVC012
     FM280300 16010KT P6SM OVC008
     FM281500 16018G24KT P6SM OVC012=



000
FTUS43 KARX 272321
TAFRST
TAF
KRST 272321Z 2800/2824 15007KT P6SM OVC012
     FM280300 16010KT P6SM OVC008
     FM281500 16018G24KT P6SM OVC012=



000
FTUS43 KARX 272321
TAFLSE
TAF
KLSE 272321Z 2800/2824 14003KT P6SM OVC022
     FM281500 15007KT P6SM OVC022=



000
FTUS43 KARX 272128 AAA
TAFLSE
TAF AMD
KLSE 272128Z 2721/2818 VRB03KT P6SM OVC022
     FM280300 14003KT P6SM OVC018
     FM281500 14007KT P6SM OVC022=



000
FTUS43 KARX 272128 AAA
TAFLSE
TAF AMD
KLSE 272128Z 2721/2818 VRB03KT P6SM OVC022
     FM280300 14003KT P6SM OVC018
     FM281500 14007KT P6SM OVC022=



000
FTUS43 KARX 272128 AAA
TAFRST
TAF AMD
KRST 272128Z 2721/2818 16007KT P6SM OVC012
     FM280200 16010KT P6SM OVC008
     FM281500 16018G25KT P6SM OVC012=



000
FTUS43 KARX 272128 AAA
TAFRST
TAF AMD
KRST 272128Z 2721/2818 16007KT P6SM OVC012
     FM280200 16010KT P6SM OVC008
     FM281500 16018G25KT P6SM OVC012=



    US Dept of Commerce
    National Oceanic and Atmospheric Administration
    National Weather Service
    1325 East West Highway
    Silver Spring, MD 20910
    Page Author: NWS Internet Services Team
Disclaimer
Information Quality
Credits
Glossary
Privacy Policy
Freedom of Information Act (FOIA)
About Us
Career Opportunities